Time;durP1;ratioP1;P1;durP2;ratioP2;P2;SDS_P1;SDS_P2;PMS_P1;PMS_P2;Temp;Humidity;BMP_temperature;BMP_pressure;BME280_temperature;BME280_humidity;BME280_pressure;Samples;Min_cycle;Max_cycle;Signal;HPM_P1;HPM_P2
2024/01/18 00:01:50;;;;;;;4.10;1.77;;;;;;;-10.62;73.84;99455.41;5063245;28;20042;-60
2024/01/18 00:04:17;;;;;;;3.90;1.50;;;;;;;-10.60;73.14;99466.34;5063228;28;20036;-61
2024/01/18 00:06:43;;;;;;;2.17;1.15;;;;;;;-10.65;73.71;99462.78;5047065;28;20044;-61
2024/01/18 00:11:54;;;;;;;3.08;1.77;;;;;;;-10.73;73.77;99434.84;5089947;28;20044;-61
2024/01/18 00:14:20;;;;;;;0.90;0.75;;;;;;;-10.55;73.92;99488.38;5048181;28;20040;-59
2024/01/18 00:16:46;;;;;;;2.00;0.95;;;;;;;-10.60;74.00;99484.81;5031284;28;20641;-58
2024/01/18 00:19:12;;;;;;;4.28;1.65;;;;;;;-10.64;74.24;99484.59;5066951;28;20040;-59
2024/01/18 00:21:39;;;;;;;1.58;0.70;;;;;;;-10.69;73.64;99496.94;5062786;28;20044;-59
2024/01/18 00:24:06;;;;;;;5.60;1.33;;;;;;;-10.98;73.54;99454.56;5056704;28;20047;-59
2024/01/18 00:26:32;;;;;;;7.28;1.25;;;;;;;-10.78;73.61;99487.31;5057253;28;20078;-60
2024/01/18 00:29:00;;;;;;;3.40;1.33;;;;;;;-11.02;74.90;99453.56;5064565;28;20041;-58
2024/01/18 00:31:26;;;;;;;2.38;1.17;;;;;;;-10.79;74.58;99488.13;5076112;28;20040;-59
2024/01/18 00:33:57;;;;;;;2.25;1.30;;;;;;;-10.81;74.39;99487.19;5064887;28;20040;-59
2024/01/18 00:36:25;;;;;;;0.75;0.75;;;;;;;-10.84;74.73;99497.09;5056472;28;20048;-61
2024/01/18 00:38:51;;;;;;;2.53;0.85;;;;;;;-10.87;74.20;99489.41;5074429;28;20044;-59
2024/01/18 00:41:18;;;;;;;6.88;1.40;;;;;;;-10.91;74.37;99492.56;5062580;28;20047;-59
2024/01/18 00:43:45;;;;;;;3.58;1.83;;;;;;;-10.93;74.72;99491.63;5064362;28;20517;-59
2024/01/18 00:46:11;;;;;;;3.85;1.40;;;;;;;-11.21;74.52;99443.47;5059396;28;20044;-60
2024/01/18 00:48:38;;;;;;;3.55;1.50;;;;;;;-10.97;74.62;99499.81;5075900;28;20068;-58
2024/01/18 00:51:04;;;;;;;3.40;1.33;;;;;;;-11.01;74.93;99499.59;5029540;28;20040;-59
2024/01/18 00:56:34;;;;;;;7.05;2.80;;;;;;;-11.11;74.77;99510.84;5063107;28;20040;-59
2024/01/18 00:59:20;;;;;;;2.97;1.25;;;;;;;-11.10;75.26;99511.72;5062968;28;20040;-59
2024/01/18 01:01:46;;;;;;;5.25;1.67;;;;;;;-11.13;74.89;99514.06;5047230;28;20044;-57
2024/01/18 01:04:12;;;;;;;4.75;2.22;;;;;;;-11.15;75.72;99519.88;5046165;28;20611;-59
2024/01/18 01:06:58;;;;;;;3.42;1.95;;;;;;;-11.21;75.56;99516.22;5063626;28;20036;-59
2024/01/18 01:09:24;;;;;;;1.88;1.05;;;;;;;-11.24;75.22;99506.03;5042710;28;20044;-58
2024/01/18 01:11:51;;;;;;;8.52;2.25;;;;;;;-11.29;75.33;99503.28;5066355;28;20043;-58
2024/01/18 01:14:18;;;;;;;5.00;1.50;;;;;;;-11.25;75.65;99524.41;5033866;28;20036;-58
2024/01/18 01:17:03;;;;;;;2.53;1.13;;;;;;;-11.29;75.20;99518.34;5063079;28;20123;-57
2024/01/18 01:19:30;;;;;;;1.75;0.95;;;;;;;-11.31;75.40;99524.94;5071953;28;20036;-59
2024/01/18 01:22:15;;;;;;;4.25;1.48;;;;;;;-11.32;75.73;99519.84;5053467;28;20055;-60
2024/01/18 01:24:42;;;;;;;2.50;1.42;;;;;;;-11.34;75.71;99518.91;5056647;28;20137;-59
2024/01/18 01:27:27;;;;;;;3.85;1.83;;;;;;;-11.62;75.74;99474.09;5062347;28;20045;-58
2024/01/18 01:29:53;;;;;;;1.75;0.70;;;;;;;-11.36;75.66;99523.00;5079012;28;20036;-58
2024/01/18 01:32:20;;;;;;;4.10;1.13;;;;;;;-11.40;75.67;99529.50;5064083;28;20045;-58
2024/01/18 01:34:46;;;;;;;3.05;1.85;;;;;;;-11.38;75.49;99535.47;5029190;28;20040;-59
2024/01/18 01:37:31;;;;;;;4.00;2.63;;;;;;;-11.65;75.35;99489.81;5063185;28;20127;-59
2024/01/18 01:39:57;;;;;;;3.28;1.38;;;;;;;-11.38;75.87;99532.09;5045002;28;20082;-59
2024/01/18 01:42:24;;;;;;;3.13;0.90;;;;;;;-11.37;75.47;99532.19;5048796;28;20044;-61
2024/01/18 01:44:53;;;;;;;5.20;1.95;;;;;;;-11.38;76.29;99535.47;5056672;28;20075;-57
2024/01/18 01:47:20;;;;;;;3.70;1.10;;;;;;;-11.58;76.11;99516.06;5046581;28;20424;-59
2024/01/18 01:49:46;;;;;;;4.60;0.85;;;;;;;-11.37;76.51;99532.19;5077553;28;20040;-60
2024/01/18 01:52:32;;;;;;;4.13;1.70;;;;;;;-11.35;76.27;99533.09;5061410;28;20033;-59
2024/01/18 01:55:17;;;;;;;5.22;1.77;;;;;;;-11.35;76.19;99535.59;5060266;28;20412;-57
2024/01/18 01:57:45;;;;;;;2.97;0.50;;;;;;;-11.34;76.56;99526.44;5056949;28;20036;-59
2024/01/18 02:00:31;;;;;;;6.57;1.42;;;;;;;-11.37;76.25;99527.16;5058076;28;20082;-58
2024/01/18 02:02:58;;;;;;;6.60;2.28;;;;;;;-11.37;76.55;99523.78;5059322;28;20044;-57
2024/01/18 02:05:26;;;;;;;2.42;0.80;;;;;;;-11.31;76.58;99529.97;5045955;28;20510;-58
2024/01/18 02:07:56;;;;;;;2.15;1.10;;;;;;;-11.82;76.56;99430.50;5045891;28;20036;-61
2024/01/18 02:10:23;;;;;;;4.03;1.73;;;;;;;-11.26;76.90;99527.69;5066835;28;21904;-58
2024/01/18 02:12:52;;;;;;;5.35;2.40;;;;;;;-11.22;76.43;99524.53;5061424;28;20128;-62
2024/01/18 02:15:19;;;;;;;4.78;2.42;;;;;;;-11.20;77.01;99512.94;5066961;28;20070;-58
2024/01/18 02:17:46;;;;;;;4.85;1.88;;;;;;;-11.37;76.35;99478.63;5048612;28;20044;-62
2024/01/18 02:20:12;;;;;;;3.80;1.92;;;;;;;-11.11;76.62;99520.88;5064190;28;20075;-58
2024/01/18 02:22:44;;;;;;;5.53;2.08;;;;;;;-11.05;76.20;99522.84;5068162;28;20040;-61
2024/01/18 02:25:21;;;;;;;4.60;2.30;;;;;;;-11.08;75.93;99515.13;5064083;28;20657;-60
2024/01/18 02:27:47;;;;;;;4.43;1.80;;;;;;;-11.12;75.66;99518.28;5092254;28;20513;-62
2024/01/18 02:30:14;;;;;;;5.93;2.95;;;;;;;-11.41;75.91;99469.25;5065415;28;20041;-61
2024/01/18 02:32:40;;;;;;;5.90;1.92;;;;;;;-11.42;75.30;99470.91;5063125;28;20178;-60
2024/01/18 02:35:07;;;;;;;5.57;2.50;;;;;;;-11.02;75.35;99517.94;5076209;28;20040;-58
2024/01/18 02:37:34;;;;;;;5.72;2.50;;;;;;;-10.98;75.24;99520.66;5064045;28;20047;-61
2024/01/18 02:40:01;;;;;;;3.10;1.55;;;;;;;-11.18;75.68;99466.19;5064524;28;20090;-57
2024/01/18 02:42:29;;;;;;;5.22;2.05;;;;;;;-10.97;75.16;99517.38;5049776;28;20131;-59
2024/01/18 02:44:57;;;;;;;6.80;2.00;;;;;;;-10.95;75.42;99515.81;5065349;28;20036;-60
2024/01/18 02:47:26;;;;;;;4.80;2.05;;;;;;;-10.98;75.34;99514.78;5047112;28;20552;-62
2024/01/18 02:49:52;;;;;;;3.40;2.05;;;;;;;-10.95;75.28;99520.84;5091804;28;20040;-61
2024/01/18 02:52:38;;;;;;;3.95;2.05;;;;;;;-10.94;75.21;99510.03;5063010;28;20456;-59
2024/01/18 02:55:23;;;;;;;6.47;2.42;;;;;;;-10.99;74.69;99521.47;5064910;28;20055;-58
2024/01/18 02:57:50;;;;;;;5.97;2.10;;;;;;;-11.27;74.96;99473.28;5063109;28;20041;-58
2024/01/18 03:00:16;;;;;;;7.53;2.33;;;;;;;-10.94;74.70;99515.03;5049068;28;20547;-60
2024/01/18 03:03:01;;;;;;;6.55;2.42;;;;;;;-10.86;74.70;99526.28;5061916;28;20052;-59
2024/01/18 03:05:46;;;;;;;6.72;1.95;;;;;;;-10.84;75.04;99526.38;5076741;28;20068;-59
2024/01/18 03:08:12;;;;;;;4.80;1.67;;;;;;;-10.96;74.53;99523.25;5064473;28;20048;-59
2024/01/18 03:10:56;;;;;;;8.07;1.95;;;;;;;-10.95;74.42;99519.97;5060423;28;20070;-59
2024/01/18 03:13:41;;;;;;;4.28;2.00;;;;;;;-10.87;74.73;99508.63;5055181;28;20520;-58
2024/01/18 03:16:07;;;;;;;3.47;1.90;;;;;;;-10.86;74.96;99502.81;5064639;28;20615;-56
2024/01/18 03:18:34;;;;;;;4.53;2.42;;;;;;;-10.75;74.64;99512.59;5067346;28;20052;-59
2024/01/18 03:21:04;;;;;;;5.15;2.20;;;;;;;-10.72;74.76;99510.19;5064101;28;20052;-58
2024/01/18 03:23:30;;;;;;;3.58;1.30;;;;;;;-10.66;74.18;99512.13;5059261;28;20425;-59
2024/01/18 03:28:41;;;;;;;7.15;2.40;;;;;;;-10.71;74.21;99501.03;5080869;28;20047;-58
2024/01/18 03:31:09;;;;;;;3.83;1.48;;;;;;;-10.59;73.60;99505.75;5064313;28;20051;-58
2024/01/18 03:33:35;;;;;;;4.37;1.60;;;;;;;-10.60;74.08;99497.34;5065843;28;20036;-60
2024/01/18 03:36:01;;;;;;;8.25;3.22;;;;;;;-10.58;73.28;99499.94;5066567;28;20047;-59
2024/01/18 03:38:27;;;;;;;6.35;2.78;;;;;;;-10.49;73.19;99496.19;5065241;28;20028;-57
2024/01/18 03:40:53;;;;;;;6.35;1.95;;;;;;;-10.44;73.73;99504.81;5058671;28;20048;-58
2024/01/18 03:43:19;;;;;;;5.18;2.13;;;;;;;-10.49;73.34;99505.38;5062733;28;20139;-61
2024/01/18 03:45:47;;;;;;;8.15;2.28;;;;;;;-10.44;72.57;99497.25;5060312;28;20464;-60
2024/01/18 03:48:13;;;;;;;6.70;2.17;;;;;;;-10.40;73.34;99490.72;5063469;28;20052;-59
2024/01/18 03:50:39;;;;;;;4.53;1.98;;;;;;;-10.36;72.86;99492.59;5087869;28;20136;-59
2024/01/18 03:53:24;;;;;;;5.05;2.35;;;;;;;-10.34;72.42;99491.00;5072015;28;20099;-61
2024/01/18 03:55:50;;;;;;;7.65;2.50;;;;;;;-10.36;71.98;99497.63;5058610;28;20048;-61
2024/01/18 03:58:16;;;;;;;5.65;2.60;;;;;;;-10.41;72.34;99494.00;5092119;28;20067;-59
2024/01/18 04:00:42;;;;;;;5.72;2.50;;;;;;;-10.40;73.24;99503.28;5060336;28;20110;-60
2024/01/18 04:06:29;;;;;;;3.97;1.75;;;;;;;-10.39;73.22;99484.91;5079020;28;20177;-60
2024/01/18 04:11:40;;;;;;;5.60;2.88;;;;;;;-10.30;72.62;99465.22;5058958;28;20645;-55
2024/01/18 04:14:06;;;;;;;4.88;2.38;;;;;;;-10.28;72.87;99485.38;5093814;28;20036;-60
2024/01/18 04:16:52;;;;;;;6.40;3.15;;;;;;;-10.21;72.62;99489.91;5061378;28;20044;-61
2024/01/18 04:19:18;;;;;;;4.30;2.03;;;;;;;-10.33;71.62;99467.59;5064269;28;20036;-60
2024/01/18 04:21:44;;;;;;;7.10;2.08;;;;;;;-10.34;71.59;99463.34;5064682;28;20422;-61
2024/01/18 04:26:55;;;;;;;4.75;2.60;;;;;;;-10.59;72.16;99425.41;5058117;28;20573;-60
2024/01/18 04:29:39;;;;;;;5.22;2.45;;;;;;;-10.32;71.64;99470.19;5063996;28;20044;-60
2024/01/18 04:32:05;;;;;;;4.22;2.00;;;;;;;-10.52;71.88;99423.19;5060494;28;20040;-59
2024/01/18 04:34:32;;;;;;;5.25;2.47;;;;;;;-10.49;71.81;99420.84;5063577;28;20071;-59
2024/01/18 04:36:57;;;;;;;5.45;2.17;;;;;;;-10.22;71.83;99453.84;5061146;28;20064;-60
2024/01/18 04:42:27;;;;;;;5.63;2.25;;;;;;;-10.06;72.06;99463.75;5063317;28;20374;-55
2024/01/18 04:45:11;;;;;;;6.78;2.35;;;;;;;-10.52;71.89;99372.13;5065797;28;20580;-61
2024/01/18 04:47:37;;;;;;;5.82;1.55;;;;;;;-9.97;71.76;99466.66;5068844;28;20048;-59
2024/01/18 04:50:03;;;;;;;6.25;2.38;;;;;;;-9.99;71.90;99455.66;5056802;28;20045;-61
2024/01/18 04:52:50;;;;;;;4.35;1.75;;;;;;;-9.98;71.51;99448.97;5068292;28;20041;-58
2024/01/18 04:55:34;;;;;;;4.82;2.00;;;;;;;-10.26;70.98;99400.91;5088618;28;20034;-61
2024/01/18 04:58:00;;;;;;;3.42;1.73;;;;;;;-9.99;71.11;99442.22;5061947;28;20369;-62
2024/01/18 05:00:26;;;;;;;9.15;2.22;;;;;;;-9.96;71.51;99450.78;5062528;28;20043;-61
2024/01/18 05:02:52;;;;;;;4.35;1.52;;;;;;;-9.97;70.88;99441.50;5063348;28;20033;-62
2024/01/18 05:05:19;;;;;;;5.95;1.88;;;;;;;-9.99;71.66;99439.72;5060027;28;20485;-61
2024/01/18 05:07:46;;;;;;;8.40;2.88;;;;;;;-9.89;70.55;99421.72;5052902;28;20101;-55
2024/01/18 05:10:30;;;;;;;4.97;2.47;;;;;;;-9.81;71.56;99407.81;5061148;28;20044;-58
2024/01/18 05:12:56;;;;;;;4.90;2.67;;;;;;;-9.75;70.92;99404.69;5058100;28;20583;-58
2024/01/18 05:15:24;;;;;;;7.53;3.50;;;;;;;-9.59;71.03;99407.03;5061324;28;20037;-58
2024/01/18 05:17:51;;;;;;;8.23;2.63;;;;;;;-9.54;70.16;99387.94;5067155;28;20127;-56
2024/01/18 05:20:17;;;;;;;6.07;2.20;;;;;;;-9.43;70.14;99390.09;5065808;28;20047;-58
2024/01/18 05:22:43;;;;;;;7.45;3.88;;;;;;;-9.38;70.56;99387.75;5067614;28;20050;-57
2024/01/18 05:25:09;;;;;;;7.28;2.60;;;;;;;-9.35;69.96;99385.34;5059086;28;20041;-58
2024/01/18 05:27:36;;;;;;;5.63;2.00;;;;;;;-9.30;70.32;99377.97;5065717;28;20044;-60
2024/01/18 05:30:07;;;;;;;6.35;1.85;;;;;;;-9.49;69.63;99333.63;5070074;28;20528;-59
2024/01/18 05:35:21;;;;;;;6.50;1.92;;;;;;;-9.17;69.35;99382.69;5064381;28;20139;-59
2024/01/18 05:37:47;;;;;;;5.28;2.13;;;;;;;-9.24;69.86;99405.91;5066813;28;20131;-61
2024/01/18 05:40:14;;;;;;;4.35;2.00;;;;;;;-9.37;68.83;99412.13;5077387;28;20110;-56
2024/01/18 05:42:40;;;;;;;2.58;1.70;;;;;;;-9.42;69.34;99401.84;5043807;28;20059;-60
2024/01/18 05:45:07;;;;;;;4.68;1.92;;;;;;;-9.43;68.94;99386.72;5089416;28;20131;-63
2024/01/18 05:47:34;;;;;;;4.60;1.95;;;;;;;-9.44;69.03;99370.75;5061386;28;20075;-60
2024/01/18 05:50:02;;;;;;;2.53;1.58;;;;;;;-9.79;68.94;99319.88;5042522;28;20084;-60
2024/01/18 05:52:29;;;;;;;4.40;2.40;;;;;;;-9.37;68.82;99369.34;5062347;28;20523;-60
2024/01/18 05:55:14;;;;;;;12.25;2.72;;;;;;;-9.36;68.58;99365.16;5062069;28;20068;-59
2024/01/18 05:58:00;;;;;;;7.72;2.53;;;;;;;-9.34;67.58;99356.88;5072867;28;20036;-62
2024/01/18 06:00:26;;;;;;;3.33;1.35;;;;;;;-9.32;67.67;99352.78;5062584;28;20123;-62
2024/01/18 06:02:53;;;;;;;4.28;1.90;;;;;;;-9.56;68.33;99301.50;5044301;28;20044;-62
2024/01/18 06:05:19;;;;;;;3.65;2.00;;;;;;;-9.16;68.40;99349.19;5044962;28;20087;-61
2024/01/18 06:08:06;;;;;;;6.25;1.88;;;;;;;-9.19;68.14;99349.91;5060385;28;20673;-61
2024/01/18 06:10:33;;;;;;;2.88;1.65;;;;;;;-9.42;67.71;99298.69;5045409;28;20047;-61
2024/01/18 06:15:44;;;;;;;1.88;1.38;;;;;;;-9.12;67.88;99338.41;5073084;28;20048;-60
2024/01/18 06:18:10;;;;;;;1.60;1.02;;;;;;;-9.13;67.33;99330.00;5062131;28;20718;-61
2024/01/18 06:20:55;;;;;;;4.63;1.88;;;;;;;-9.08;66.91;99317.59;5062764;28;20049;-60
2024/01/18 06:23:22;;;;;;;2.97;1.45;;;;;;;-9.02;67.24;99312.78;5060508;28;20044;-60
2024/01/18 06:25:48;;;;;;;4.15;1.42;;;;;;;-9.07;67.07;99289.97;5058097;28;20048;-61
2024/01/18 06:28:15;;;;;;;3.65;2.28;;;;;;;-9.02;66.41;99290.13;5058056;28;20033;-62
2024/01/18 06:30:43;;;;;;;1.77;1.35;;;;;;;-9.08;66.13;99283.19;5077091;28;20043;-63
2024/01/18 06:33:14;;;;;;;4.22;1.83;;;;;;;-9.05;66.01;99279.91;5061911;28;20048;-62
2024/01/18 06:35:40;;;;;;;5.70;1.88;;;;;;;-9.02;66.42;99255.75;5030459;28;20467;-61
2024/01/18 06:38:07;;;;;;;2.67;1.50;;;;;;;-9.19;66.39;99223.19;5090997;28;20523;-58
2024/01/18 06:43:18;;;;;;;4.57;1.40;;;;;;;-8.91;65.97;99252.75;5067675;28;20044;-61
2024/01/18 06:45:45;;;;;;;2.42;1.60;;;;;;;-9.14;66.03;99216.66;5068323;28;20121;-58
2024/01/18 06:48:11;;;;;;;5.50;1.50;;;;;;;-8.84;65.79;99260.53;5044297;28;20098;-59
2024/01/18 06:50:37;;;;;;;5.18;1.77;;;;;;;-9.27;66.31;99184.34;5044873;28;20133;-61
2024/01/18 06:53:04;;;;;;;3.08;1.10;;;;;;;-8.82;66.01;99263.13;5056673;28;20045;-61
2024/01/18 06:55:31;;;;;;;4.13;1.67;;;;;;;-8.80;66.25;99251.47;5066129;28;20127;-61
2024/01/18 06:58:02;;;;;;;4.85;1.67;;;;;;;-8.75;66.24;99244.91;5078209;28;20115;-61
2024/01/18 07:00:47;;;;;;;4.07;1.70;;;;;;;-8.72;65.62;99243.34;5062124;28;20099;-63
2024/01/18 07:03:14;;;;;;;2.30;1.10;;;;;;;-8.69;65.60;99245.97;5075766;28;20032;-62
2024/01/18 07:08:44;;;;;;;1.15;0.88;;;;;;;-8.66;66.53;99225.06;5062246;28;20135;-61
2024/01/18 07:11:10;;;;;;;1.92;0.90;;;;;;;-8.83;65.88;99195.94;5064985;28;20173;-60
2024/01/18 07:13:36;;;;;;;9.93;3.75;;;;;;;-8.61;65.93;99219.38;5092615;28;20044;-61
2024/01/18 07:16:02;;;;;;;3.20;1.17;;;;;;;-8.62;65.11;99217.66;5062414;28;20036;-61
2024/01/18 07:18:48;;;;;;;4.43;1.33;;;;;;;-8.57;65.12;99218.69;5064850;28;20067;-61
2024/01/18 07:21:32;;;;;;;4.13;1.23;;;;;;;-8.79;64.47;99165.84;5091812;28;20052;-64
2024/01/18 07:24:18;;;;;;;1.52;0.75;;;;;;;-8.62;64.23;99173.97;5062039;28;20037;-62
2024/01/18 07:27:02;;;;;;;1.35;0.90;;;;;;;-8.31;63.71;99214.50;5063676;28;20044;-61
2024/01/18 07:29:28;;;;;;;1.67;0.70;;;;;;;-8.29;63.53;99212.00;5063819;28;20519;-61
2024/01/18 07:31:55;;;;;;;2.85;1.75;;;;;;;-8.26;63.15;99215.47;5066460;28;20082;-57
2024/01/18 07:37:24;;;;;;;3.03;1.15;;;;;;;-8.57;62.40;99134.66;5090528;28;20405;-61
2024/01/18 07:39:50;;;;;;;3.60;1.83;;;;;;;-7.97;61.99;99207.97;5061453;28;20039;-62
2024/01/18 07:42:17;;;;;;;3.25;1.30;;;;;;;-7.95;62.13;99191.19;5060728;28;20048;-61
2024/01/18 07:44:46;;;;;;;2.25;1.23;;;;;;;-7.85;61.60;99195.75;5065204;28;20156;-59
2024/01/18 07:47:12;;;;;;;3.63;1.25;;;;;;;-8.05;61.03;99166.50;5065461;28;20508;-60
2024/01/18 07:49:42;;;;;;;3.33;1.70;;;;;;;-7.90;60.79;99202.31;5064504;28;20044;-59
2024/01/18 07:52:09;;;;;;;3.13;1.65;;;;;;;-8.17;60.29;99157.78;5063395;28;20048;-61
2024/01/18 07:54:35;;;;;;;3.88;1.52;;;;;;;-7.99;60.94;99202.88;5062191;28;20138;-58
2024/01/18 07:57:01;;;;;;;2.47;1.73;;;;;;;-8.18;60.27;99203.97;5061395;28;20103;-64
2024/01/18 07:59:46;;;;;;;2.35;1.15;;;;;;;-8.00;60.90;99220.47;5061545;28;20036;-59
2024/01/18 08:02:11;;;;;;;6.43;1.70;;;;;;;-8.00;61.07;99228.03;5061695;28;20040;-59
2024/01/18 08:04:37;;;;;;;2.00;1.40;;;;;;;-8.21;61.17;99170.22;5090706;28;20058;-64
2024/01/18 08:07:22;;;;;;;1.80;1.20;;;;;;;-7.93;61.17;99205.59;5061656;28;20067;-57
2024/01/18 08:10:08;;;;;;;2.70;0.98;;;;;;;-7.88;60.95;99203.19;5060025;28;20056;-61
2024/01/18 08:12:34;;;;;;;1.52;0.80;;;;;;;-7.94;60.79;99200.47;5064751;28;20052;-56
2024/01/18 08:15:00;;;;;;;3.78;1.50;;;;;;;-7.93;60.62;99197.16;5062327;28;20069;-53
2024/01/18 08:17:27;;;;;;;3.22;1.17;;;;;;;-7.91;60.64;99200.59;5062743;28;20174;-58
2024/01/18 08:20:14;;;;;;;2.17;0.80;;;;;;;-7.91;60.75;99211.53;5048429;28;20033;-61
2024/01/18 08:22:40;;;;;;;2.13;1.10;;;;;;;-8.12;60.75;99157.94;5071620;28;20036;-62
2024/01/18 08:25:44;;;;;;;2.78;1.15;;;;;;;-7.77;60.65;99205.25;5063590;28;20040;-60
2024/01/18 08:28:13;;;;;;;2.10;1.23;;;;;;;-7.99;60.28;99159.13;5063344;28;20044;-60
2024/01/18 08:30:40;;;;;;;2.13;1.00;;;;;;;-8.02;59.74;99149.81;5058641;28;20045;-60
2024/01/18 08:33:08;;;;;;;2.05;0.80;;;;;;;-8.25;59.78;99112.97;5063176;28;20154;-59
2024/01/18 08:35:52;;;;;;;3.80;1.20;;;;;;;-7.71;60.51;99192.81;5063283;28;20094;-60
2024/01/18 08:38:20;;;;;;;0.70;0.57;;;;;;;-7.69;59.62;99181.91;5063502;28;20387;-61
2024/01/18 08:41:05;;;;;;;1.65;0.88;;;;;;;-7.70;59.76;99181.06;5072142;28;20039;-59
2024/01/18 08:46:34;;;;;;;3.63;1.98;;;;;;;-7.71;59.05;99175.16;5058275;28;20131;-58
2024/01/18 08:49:00;;;;;;;2.50;1.70;;;;;;;-8.09;59.29;99094.97;5063779;28;20045;-60
2024/01/18 08:51:26;;;;;;;3.50;1.40;;;;;;;-7.93;59.38;99137.47;5073530;28;20103;-57
2024/01/18 08:53:52;;;;;;;4.15;1.17;;;;;;;-7.96;59.11;99131.50;5061029;28;21010;-58
2024/01/18 08:56:18;;;;;;;2.13;0.90;;;;;;;-8.02;59.00;99093.50;5062341;28;20051;-59
2024/01/18 08:58:43;;;;;;;0.90;0.60;;;;;;;-7.97;58.72;99095.34;5064839;28;20032;-59
2024/01/18 09:01:28;;;;;;;2.50;1.17;;;;;;;-7.93;58.61;99097.13;5063841;28;20045;-59
2024/01/18 09:03:54;;;;;;;1.10;0.70;;;;;;;-7.86;58.95;99081.38;5064098;28;20607;-57
2024/01/18 09:06:20;;;;;;;2.95;1.02;;;;;;;-7.75;58.88;99072.44;5055404;28;20410;-57
2024/01/18 09:08:46;;;;;;;2.70;1.00;;;;;;;-7.64;58.92;99065.13;5070523;28;20589;-57
2024/01/18 09:11:11;;;;;;;1.98;1.05;;;;;;;-7.59;58.25;99071.19;5064125;28;20131;-59
2024/01/18 09:13:37;;;;;;;1.75;0.93;;;;;;;-7.65;58.40;99060.94;5064840;28;20062;-60
2024/01/18 09:16:04;;;;;;;3.25;1.42;;;;;;;-7.73;58.34;99055.66;5049962;28;20049;-54
2024/01/18 09:18:30;;;;;;;1.80;0.90;;;;;;;-7.73;58.46;99069.94;5065764;28;20036;-56
2024/01/18 09:20:55;;;;;;;2.22;0.98;;;;;;;-7.82;58.04;99026.81;5064808;28;20040;-58
2024/01/18 09:23:21;;;;;;;3.47;1.05;;;;;;;-8.10;58.44;98974.75;5044879;28;20133;-59
2024/01/18 09:25:47;;;;;;;3.42;1.27;;;;;;;-7.97;58.54;98963.34;5066190;28;20121;-57
2024/01/18 09:28:32;;;;;;;8.20;3.05;;;;;;;-7.81;59.10;98957.91;5064635;28;20044;-59
2024/01/18 09:31:16;;;;;;;4.60;2.00;;;;;;;-7.56;58.84;98929.94;5062437;28;20423;-59
2024/01/18 09:33:42;;;;;;;3.78;1.25;;;;;;;-7.23;59.09;98929.91;5061267;28;20045;-56
2024/01/18 09:36:08;;;;;;;4.88;1.80;;;;;;;-7.31;58.55;98922.16;5057595;28;20059;-59
2024/01/18 09:38:36;;;;;;;2.60;1.02;;;;;;;-7.24;58.32;98929.88;5056186;28;20075;-59
2024/01/18 09:41:20;;;;;;;2.20;1.27;;;;;;;-7.27;58.51;98938.22;5060825;28;20051;-60
2024/01/18 09:43:52;;;;;;;2.17;1.30;;;;;;;-7.32;58.57;98910.34;5078758;28;20043;-57
2024/01/18 09:46:18;;;;;;;3.75;1.20;;;;;;;-7.61;57.93;98863.38;5060634;28;20048;-58
2024/01/18 09:48:44;;;;;;;1.67;0.98;;;;;;;-7.50;58.26;98878.78;5061853;28;20040;-54
2024/01/18 09:51:12;;;;;;;3.50;1.05;;;;;;;-7.59;57.95;98859.22;5058813;28;20144;-58
2024/01/18 09:53:40;;;;;;;1.80;1.05;;;;;;;-7.54;58.03;98867.75;5089427;28;20051;-59
2024/01/18 09:56:22;;;;;;;1.52;0.80;;;;;;;-7.41;58.27;98901.69;5047150;28;20037;-57
2024/01/18 09:58:49;;;;;;;3.40;1.17;;;;;;;-7.42;58.38;98877.28;5082757;28;20412;-56
2024/01/18 10:01:19;;;;;;;1.02;0.65;;;;;;;-7.49;58.61;98858.63;5066033;28;20048;-58
2024/01/18 10:04:03;;;;;;;4.17;1.03;;;;;;;-7.47;57.99;98883.88;5058020;28;20044;-58
2024/01/18 10:06:29;;;;;;;1.75;1.00;;;;;;;-7.53;58.34;98859.34;5072072;28;20526;-56
2024/01/18 10:08:55;;;;;;;2.58;1.30;;;;;;;-7.51;58.15;98846.78;5064701;28;20055;-59
2024/01/18 10:11:21;;;;;;;2.10;1.15;;;;;;;-7.44;57.81;98858.72;5059553;28;20036;-58
2024/01/18 10:13:52;;;;;;;3.63;1.20;;;;;;;-7.56;57.98;98823.09;5062848;28;20041;-57
2024/01/18 10:16:32;;;;;;;1.42;0.77;;;;;;;-7.41;58.45;98824.31;5066910;28;20051;-58
2024/01/18 10:19:18;;;;;;;3.88;1.30;;;;;;;-7.31;58.18;98800.13;5067240;28;20047;-58
2024/01/18 10:21:46;;;;;;;1.27;0.77;;;;;;;-7.45;57.51;98772.06;5066487;28;20040;-59
2024/01/18 10:24:13;;;;;;;12.20;1.00;;;;;;;-7.29;57.59;98796.81;5066541;28;20036;-55
2024/01/18 10:26:40;;;;;;;1.90;0.80;;;;;;;-7.22;57.31;98776.75;5065305;28;20055;-56
2024/01/18 10:29:09;;;;;;;4.72;0.95;;;;;;;-7.21;57.12;98769.19;5071401;28;20036;-56
2024/01/18 10:31:38;;;;;;;1.90;1.10;;;;;;;-7.33;57.07;98749.59;5067180;28;20129;-57
2024/01/18 10:34:05;;;;;;;1.63;1.00;;;;;;;-7.27;56.98;98751.38;5082455;28;20056;-57
2024/01/18 10:36:49;;;;;;;2.08;1.10;;;;;;;-7.20;57.25;98748.19;5088484;28;20037;-58
2024/01/18 10:39:17;;;;;;;2.10;1.27;;;;;;;-7.09;56.91;98746.72;5065041;28;20048;-57
2024/01/18 10:42:06;;;;;;;3.83;0.85;;;;;;;-7.31;56.63;98697.47;5065691;28;20075;-59
2024/01/18 10:44:38;;;;;;;2.25;1.08;;;;;;;-7.18;56.33;98736.47;5052902;28;20792;-55
2024/01/18 10:47:14;;;;;;;1.75;0.98;;;;;;;-7.10;56.89;98729.88;5066695;28;20048;-58
2024/01/18 10:50:17;;;;;;;3.55;1.50;;;;;;;-6.93;56.36;98720.09;5090534;28;20427;-56
2024/01/18 10:52:44;;;;;;;2.45;0.98;;;;;;;-7.03;55.85;98703.06;5069590;28;20090;-57
2024/01/18 10:55:12;;;;;;;3.00;1.00;;;;;;;-7.53;55.99;98626.34;5076414;28;20621;-57
2024/01/18 11:00:22;;;;;;;3.83;0.98;;;;;;;-7.13;55.11;98676.78;5063497;28;20045;-60
2024/01/18 11:02:48;;;;;;;1.70;0.95;;;;;;;-7.13;55.35;98670.88;5070673;28;20070;-59
2024/01/18 11:05:16;;;;;;;1.83;0.88;;;;;;;-7.11;55.08;98687.75;5072154;28;20052;-57
2024/01/18 11:07:42;;;;;;;9.10;1.08;;;;;;;-7.13;54.73;98678.47;5070142;28;20040;-53
2024/01/18 11:10:12;;;;;;;1.25;0.95;;;;;;;-7.13;54.97;98671.75;5049458;28;20059;-55
2024/01/18 11:12:43;;;;;;;2.72;1.17;;;;;;;-7.06;54.93;98660.06;5044183;28;20044;-55
2024/01/18 11:15:13;;;;;;;1.40;1.00;;;;;;;-6.95;55.15;98646.81;5062399;28;20423;-54
2024/01/18 11:17:45;;;;;;;1.70;0.88;;;;;;;-6.85;55.04;98628.47;5063602;28;20044;-54
2024/01/18 11:20:30;;;;;;;1.35;1.10;;;;;;;-6.87;54.23;98621.69;5046876;28;20040;-54
2024/01/18 11:22:58;;;;;;;2.58;1.05;;;;;;;-7.20;54.22;98563.88;5065948;28;20076;-57
2024/01/18 11:28:21;;;;;;;4.40;0.98;;;;;;;-7.32;54.42;98536.72;5064325;28;20094;-56
2024/01/18 11:31:06;;;;;;;1.88;0.93;;;;;;;-6.99;54.24;98599.59;5059226;28;20072;-56
2024/01/18 11:33:32;;;;;;;1.35;0.73;;;;;;;-7.14;53.86;98617.00;5066669;28;20126;-53
2024/01/18 11:36:02;;;;;;;2.60;1.17;;;;;;;-7.45;54.36;98507.06;5080008;28;20044;-56
2024/01/18 11:38:48;;;;;;;1.42;0.70;;;;;;;-7.11;54.95;98553.91;5060751;28;20041;-54
2024/01/18 11:41:29;;;;;;;1.50;0.90;;;;;;;-7.31;54.53;98532.53;5054982;28;20094;-57
2024/01/18 11:43:57;;;;;;;1.77;1.08;;;;;;;-7.26;55.10;98558.72;5060156;28;20088;-57
2024/01/18 11:46:40;;;;;;;4.45;1.13;;;;;;;-7.31;54.53;98552.72;5059800;28;20055;-58
2024/01/18 11:49:25;;;;;;;1.60;0.80;;;;;;;-7.41;55.02;98498.72;5068711;28;20154;-54
2024/01/18 11:54:37;;;;;;;1.45;1.02;;;;;;;-7.55;56.71;98443.78;5057546;28;20091;-57
2024/01/18 11:57:06;;;;;;;2.30;0.95;;;;;;;-7.57;60.81;98422.72;5055370;28;20047;-57
2024/01/18 11:59:32;;;;;;;3.15;1.05;;;;;;;-7.36;62.43;98471.88;5046795;28;20032;-56
2024/01/18 12:02:17;;;;;;;2.72;1.20;;;;;;;-7.79;65.36;98424.88;5058069;28;20044;-54
2024/01/18 12:04:43;;;;;;;3.67;0.93;;;;;;;-7.74;69.10;98412.34;5042854;28;20523;-54
2024/01/18 12:07:11;;;;;;;2.63;1.17;;;;;;;-7.60;70.13;98410.06;5046520;28;20102;-54
2024/01/18 12:09:37;;;;;;;3.13;1.27;;;;;;;-7.71;70.03;98379.63;5043492;28;20427;-53
2024/01/18 12:12:04;;;;;;;3.13;1.20;;;;;;;-7.83;70.95;98324.78;5045800;28;20167;-55
2024/01/18 12:14:50;;;;;;;3.55;1.15;;;;;;;-7.50;71.17;98359.78;5054165;28;20544;-52
2024/01/18 12:17:35;;;;;;;2.38;1.50;;;;;;;-7.54;71.75;98342.91;5062313;28;20044;-55
2024/01/18 12:20:01;;;;;;;9.05;1.48;;;;;;;-7.54;72.12;98330.28;5058026;28;20569;-53
2024/01/18 12:22:28;;;;;;;5.90;1.40;;;;;;;-7.57;73.79;98339.47;5076548;28;20123;-51
2024/01/18 12:24:54;;;;;;;3.08;1.35;;;;;;;-7.84;73.36;98295.31;5059336;28;20044;-51
2024/01/18 12:27:40;;;;;;;3.22;1.25;;;;;;;-7.76;72.85;98310.59;5060206;28;20051;-51
2024/01/18 12:30:07;;;;;;;2.83;1.23;;;;;;;-7.75;71.75;98298.00;5057545;28;20366;-53
2024/01/18 12:32:35;;;;;;;11.07;1.92;;;;;;;-7.77;71.22;98283.66;5057305;28;20052;-56